Time;durP1;ratioP1;P1;durP2;ratioP2;P2;SDS_P1;SDS_P2;PMS_P1;PMS_P2;Temp;Humidity;BMP_temperature;BMP_pressure;BME280_temperature;BME280_humidity;BME280_pressure;Samples;Min_cycle;Max_cycle;Signal;HPM_P1;HPM_P2
2021/12/20 00:02:06;;;;;;;28.10;15.60;;;;;;;;;;4954144;29;20653;-70
2021/12/20 00:05:12;;;;;;;29.37;14.47;;;;;;;;;;4953756;29;20996;-71
2021/12/20 00:08:16;;;;;;;27.83;15.03;;;;;;;;;;4943068;29;20550;-70
2021/12/20 00:11:20;;;;;;;29.57;16.37;;;;;;;;;;4954051;29;20649;-70
2021/12/20 00:14:24;;;;;;;30.40;15.60;;;;;;;;;;4954871;29;20920;-70
2021/12/20 00:17:28;;;;;;;25.57;13.97;;;;;;;;;;4954821;29;20542;-70
2021/12/20 00:20:32;;;;;;;26.60;15.23;;;;;;;;;;4953839;29;20602;-70
2021/12/20 00:23:37;;;;;;;29.53;14.77;;;;;;;;;;4954963;29;20614;-70
2021/12/20 00:26:42;;;;;;;29.33;15.53;;;;;;;;;;4954820;29;21193;-70
2021/12/20 00:29:49;;;;;;;28.10;15.50;;;;;;;;;;4954487;29;20594;-70
2021/12/20 00:32:53;;;;;;;26.83;16.20;;;;;;;;;;4954312;29;20633;-70
2021/12/20 00:35:57;;;;;;;24.60;14.67;;;;;;;;;;4953903;29;20560;-70
2021/12/20 00:42:24;;;;;;;26.70;14.90;;;;;;;;;;4954538;29;20666;-70
2021/12/20 00:45:32;;;;;;;25.07;15.33;;;;;;;;;;4935958;29;20551;-70
2021/12/20 00:48:36;;;;;;;26.90;15.20;;;;;;;;;;4937223;29;20598;-70
2021/12/20 00:51:40;;;;;;;30.23;14.60;;;;;;;;;;4954444;29;20638;-70
2021/12/20 00:54:44;;;;;;;31.63;16.53;;;;;;;;;;4954739;29;20556;-70
2021/12/20 00:57:50;;;;;;;29.07;15.67;;;;;;;;;;4954254;29;21123;-70
2021/12/20 01:00:58;;;;;;;28.43;15.10;;;;;;;;;;4955231;28;21089;-70
2021/12/20 01:04:03;;;;;;;28.57;15.87;;;;;;;;;;4938677;29;20658;-70
2021/12/20 01:07:07;;;;;;;30.17;14.70;;;;;;;;;;4938737;29;21112;-70
2021/12/20 01:10:11;;;;;;;26.97;15.67;;;;;;;;;;4941939;29;20629;-70
2021/12/20 01:13:19;;;;;;;30.73;16.10;;;;;;;;;;4957723;29;20609;-70
2021/12/20 01:16:31;;;;;;;27.77;15.30;;;;;;;;;;4958011;29;20563;-70
2021/12/20 01:19:36;;;;;;;31.83;16.00;;;;;;;;;;4957402;29;20603;-70
2021/12/20 01:22:43;;;;;;;28.73;15.33;;;;;;;;;;4956771;29;21059;-70
2021/12/20 01:25:47;;;;;;;29.83;16.53;;;;;;;;;;4945541;29;20601;-70
2021/12/20 01:28:51;;;;;;;30.00;15.90;;;;;;;;;;4957528;29;20611;-70
2021/12/20 01:31:56;;;;;;;31.53;16.03;;;;;;;;;;4957269;29;20635;-70
2021/12/20 01:35:00;;;;;;;31.77;15.73;;;;;;;;;;4957606;29;20563;-70
2021/12/20 01:38:05;;;;;;;28.73;15.60;;;;;;;;;;4957009;29;20680;-70
2021/12/20 01:41:10;;;;;;;28.87;16.00;;;;;;;;;;4957358;29;21258;-70
2021/12/20 01:44:15;;;;;;;31.63;16.03;;;;;;;;;;4957442;29;20618;-70
2021/12/20 01:47:19;;;;;;;30.10;16.80;;;;;;;;;;4956813;29;20611;-70
2021/12/20 01:50:40;;;;;;;30.93;16.07;;;;;;;;;;4937319;29;20565;-70
2021/12/20 01:53:44;;;;;;;30.53;16.10;;;;;;;;;;4938213;29;20629;-70
2021/12/20 01:56:48;;;;;;;30.57;16.93;;;;;;;;;;4926724;29;20553;-70
2021/12/20 01:59:53;;;;;;;30.37;15.63;;;;;;;;;;4926146;29;20555;-70
2021/12/20 02:03:00;;;;;;;29.77;16.47;;;;;;;;;;4938162;29;20656;-70
2021/12/20 02:06:09;;;;;;;30.63;16.10;;;;;;;;;;4936856;29;20612;-70
2021/12/20 02:09:19;;;;;;;30.10;16.20;;;;;;;;;;4951094;29;20631;-70
2021/12/20 02:12:23;;;;;;;26.83;14.73;;;;;;;;;;4955923;28;20650;-70
2021/12/20 02:15:27;;;;;;;25.60;14.40;;;;;;;;;;4956597;29;20600;-70
2021/12/20 02:18:32;;;;;;;27.10;14.87;;;;;;;;;;4955797;29;20599;-70
2021/12/20 02:21:37;;;;;;;27.43;15.47;;;;;;;;;;4942879;29;20655;-70
2021/12/20 02:24:40;;;;;;;27.93;15.20;;;;;;;;;;4943886;29;21197;-70
2021/12/20 02:27:45;;;;;;;25.60;14.23;;;;;;;;;;4926103;29;20556;-70
2021/12/20 02:36:56;;;;;;;28.17;14.87;;;;;;;;;;4939130;29;21179;-70
2021/12/20 02:37:41;;;;;;;28.47;15.37;;;;;;;;;;4943926;29;20645;-70
2021/12/20 02:40:46;;;;;;;27.63;14.63;;;;;;;;;;4956016;29;20598;-70
2021/12/20 02:43:57;;;;;;;28.97;15.57;;;;;;;;;;4944566;29;20612;-70
2021/12/20 02:50:06;;;;;;;28.40;15.50;;;;;;;;;;4944291;29;20624;-73
2021/12/20 02:53:10;;;;;;;29.07;15.03;;;;;;;;;;4955633;29;20650;-70
2021/12/20 02:56:14;;;;;;;28.57;14.47;;;;;;;;;;4955898;29;20555;-70
2021/12/20 02:59:19;;;;;;;25.77;14.83;;;;;;;;;;4955614;29;20575;-70
2021/12/20 03:02:23;;;;;;;29.30;14.97;;;;;;;;;;4955931;29;20634;-70
2021/12/20 03:05:27;;;;;;;28.20;15.03;;;;;;;;;;4955681;29;20627;-70
2021/12/20 03:08:31;;;;;;;28.00;15.53;;;;;;;;;;4925169;29;20985;-70
2021/12/20 03:11:36;;;;;;;27.20;14.07;;;;;;;;;;4936480;29;20654;-70
2021/12/20 03:14:44;;;;;;;28.83;15.57;;;;;;;;;;4936453;29;20560;-70
2021/12/20 03:17:48;;;;;;;25.90;13.63;;;;;;;;;;4936260;29;20598;-70
2021/12/20 03:20:52;;;;;;;26.27;15.67;;;;;;;;;;4954993;29;20599;-70
2021/12/20 03:23:56;;;;;;;26.80;15.67;;;;;;;;;;4954464;28;20600;-70
2021/12/20 03:27:00;;;;;;;31.17;15.00;;;;;;;;;;4955343;29;20615;-70
2021/12/20 03:30:08;;;;;;;24.27;14.33;;;;;;;;;;4955078;29;20634;-70
2021/12/20 03:33:12;;;;;;;29.13;15.03;;;;;;;;;;4955261;29;20630;-70
2021/12/20 03:36:16;;;;;;;29.27;15.73;;;;;;;;;;4955000;29;20595;-70
2021/12/20 03:39:20;;;;;;;24.77;15.03;;;;;;;;;;4943608;29;20607;-70
2021/12/20 03:42:26;;;;;;;24.50;13.77;;;;;;;;;;4955380;29;20631;-70
2021/12/20 03:45:30;;;;;;;27.27;15.30;;;;;;;;;;4954414;29;21099;-70
2021/12/20 03:48:35;;;;;;;28.67;14.57;;;;;;;;;;4955372;29;20559;-70
2021/12/20 03:51:39;;;;;;;29.83;15.93;;;;;;;;;;4943216;29;20653;-70
2021/12/20 03:54:43;;;;;;;27.93;14.10;;;;;;;;;;4954481;29;20598;-70
2021/12/20 03:57:47;;;;;;;31.43;16.33;;;;;;;;;;4954976;29;21000;-70
2021/12/20 04:00:51;;;;;;;29.30;15.10;;;;;;;;;;4939984;29;20961;-70
2021/12/20 04:03:57;;;;;;;28.03;14.60;;;;;;;;;;4954156;29;20626;-70
2021/12/20 04:07:02;;;;;;;29.70;14.33;;;;;;;;;;4954893;29;20547;-70
2021/12/20 04:10:07;;;;;;;31.97;16.00;;;;;;;;;;4953994;29;20632;-70
2021/12/20 04:13:11;;;;;;;27.80;14.87;;;;;;;;;;4954496;29;20681;-70
2021/12/20 04:16:15;;;;;;;25.30;14.00;;;;;;;;;;4935661;29;20549;-70
2021/12/20 04:19:19;;;;;;;24.30;13.27;;;;;;;;;;4952485;29;20594;-70
2021/12/20 04:22:24;;;;;;;24.87;14.37;;;;;;;;;;4954902;29;20644;-70
2021/12/20 04:25:27;;;;;;;28.10;14.20;;;;;;;;;;4954465;29;20622;-70
2021/12/20 04:28:32;;;;;;;30.90;14.43;;;;;;;;;;4943095;29;20560;-70
2021/12/20 04:31:36;;;;;;;26.57;15.10;;;;;;;;;;4937301;29;20642;-70
2021/12/20 04:34:41;;;;;;;26.50;14.23;;;;;;;;;;4952462;28;20562;-70
2021/12/20 04:37:47;;;;;;;32.43;15.20;;;;;;;;;;4943366;29;20574;-70
2021/12/20 04:40:51;;;;;;;27.83;14.07;;;;;;;;;;4954969;29;20574;-71
2021/12/20 04:43:55;;;;;;;25.60;14.83;;;;;;;;;;4954859;29;20618;-70
2021/12/20 04:46:59;;;;;;;26.33;14.70;;;;;;;;;;4954387;29;20614;-70
2021/12/20 04:50:04;;;;;;;25.60;13.83;;;;;;;;;;4931985;29;20615;-70
2021/12/20 04:53:08;;;;;;;30.00;14.57;;;;;;;;;;4937612;29;20650;-71
2021/12/20 04:56:13;;;;;;;26.90;15.07;;;;;;;;;;4942631;29;20609;-71
2021/12/20 04:59:17;;;;;;;25.13;13.87;;;;;;;;;;4954053;29;20611;-70
2021/12/20 05:02:21;;;;;;;29.80;14.70;;;;;;;;;;4935629;29;21630;-71
2021/12/20 05:05:28;;;;;;;30.77;14.97;;;;;;;;;;4935404;29;20551;-71
2021/12/20 05:08:45;;;;;;;25.60;13.83;;;;;;;;;;4924640;29;20946;-71
2021/12/20 05:12:00;;;;;;;26.17;14.33;;;;;;;;;;4953903;29;20649;-71
2021/12/20 05:15:05;;;;;;;26.67;14.03;;;;;;;;;;4942670;29;20610;-70
2021/12/20 05:18:09;;;;;;;25.67;13.63;;;;;;;;;;4942188;29;20964;-70
2021/12/20 05:21:14;;;;;;;28.50;14.20;;;;;;;;;;4954190;29;20653;-70
2021/12/20 05:24:18;;;;;;;28.47;14.37;;;;;;;;;;4953091;29;20653;-70
2021/12/20 05:27:23;;;;;;;25.00;13.30;;;;;;;;;;4954236;29;20924;-70
2021/12/20 05:30:27;;;;;;;25.03;12.47;;;;;;;;;;4934885;29;20570;-70
2021/12/20 05:33:31;;;;;;;22.30;12.67;;;;;;;;;;4935032;29;21203;-71
2021/12/20 05:36:35;;;;;;;23.63;12.63;;;;;;;;;;4923254;29;20567;-70
2021/12/20 05:39:40;;;;;;;21.73;12.10;;;;;;;;;;4941997;29;20605;-70
2021/12/20 05:42:45;;;;;;;27.10;13.67;;;;;;;;;;4934718;29;20654;-70
2021/12/20 05:45:50;;;;;;;26.77;12.67;;;;;;;;;;4947436;29;20602;-70
2021/12/20 05:48:54;;;;;;;25.13;13.40;;;;;;;;;;4952914;29;20610;-70
2021/12/20 05:51:59;;;;;;;20.10;12.43;;;;;;;;;;4953388;29;20661;-70
2021/12/20 05:55:05;;;;;;;22.87;12.53;;;;;;;;;;4941707;29;20601;-70
2021/12/20 05:58:09;;;;;;;19.77;11.50;;;;;;;;;;4953086;29;20621;-70
2021/12/20 06:01:15;;;;;;;21.67;12.37;;;;;;;;;;4941847;29;20634;-70
2021/12/20 06:04:19;;;;;;;23.23;12.43;;;;;;;;;;4953543;29;20624;-70
2021/12/20 06:07:23;;;;;;;21.13;10.87;;;;;;;;;;4953393;29;20606;-70
2021/12/20 06:10:27;;;;;;;21.90;11.67;;;;;;;;;;4940253;29;20836;-71
2021/12/20 06:13:31;;;;;;;23.93;11.93;;;;;;;;;;4953680;29;20916;-70
2021/12/20 06:16:42;;;;;;;23.27;12.13;;;;;;;;;;4955971;29;20600;-70
2021/12/20 06:19:51;;;;;;;16.37;9.83;;;;;;;;;;4923452;29;20634;-71
2021/12/20 06:22:55;;;;;;;21.50;11.30;;;;;;;;;;4944494;29;20659;-70
2021/12/20 06:26:01;;;;;;;21.10;11.27;;;;;;;;;;4955700;29;20953;-70
2021/12/20 06:29:04;;;;;;;23.47;12.13;;;;;;;;;;4944180;29;20588;-70
2021/12/20 06:32:09;;;;;;;22.93;12.07;;;;;;;;;;4943974;29;20667;-71
2021/12/20 06:35:13;;;;;;;24.73;12.80;;;;;;;;;;4955199;29;20591;-70
2021/12/20 06:38:20;;;;;;;25.43;13.57;;;;;;;;;;4955848;29;20590;-70
2021/12/20 06:41:24;;;;;;;26.17;13.90;;;;;;;;;;4955704;29;20637;-71
2021/12/20 06:44:28;;;;;;;26.40;14.63;;;;;;;;;;4955672;29;20665;-70
2021/12/20 06:47:34;;;;;;;35.50;15.50;;;;;;;;;;4956248;29;21208;-70
2021/12/20 06:50:39;;;;;;;27.30;14.50;;;;;;;;;;4954519;29;20595;-71
2021/12/20 06:53:43;;;;;;;24.77;14.03;;;;;;;;;;4944248;29;21122;-70
2021/12/20 06:56:47;;;;;;;28.03;13.57;;;;;;;;;;4956070;29;20885;-70
2021/12/20 06:59:51;;;;;;;30.17;16.57;;;;;;;;;;4953266;28;20688;-71
2021/12/20 07:02:55;;;;;;;26.90;15.10;;;;;;;;;;4955270;29;20655;-71
2021/12/20 07:06:00;;;;;;;31.17;15.77;;;;;;;;;;4955566;29;20551;-70
2021/12/20 07:09:04;;;;;;;29.83;15.87;;;;;;;;;;4955015;29;20602;-71
2021/12/20 07:12:09;;;;;;;31.40;15.97;;;;;;;;;;4955364;29;20756;-70
2021/12/20 07:15:14;;;;;;;26.67;15.27;;;;;;;;;;4944009;29;21213;-71
2021/12/20 07:18:18;;;;;;;30.30;16.43;;;;;;;;;;4939460;29;20626;-70
2021/12/20 07:21:22;;;;;;;26.53;15.93;;;;;;;;;;4955157;29;21267;-70
2021/12/20 07:24:26;;;;;;;29.33;15.33;;;;;;;;;;4954748;29;20622;-70
2021/12/20 07:27:31;;;;;;;27.60;16.10;;;;;;;;;;4955229;29;20610;-70
2021/12/20 07:30:35;;;;;;;28.47;15.43;;;;;;;;;;4954626;29;20630;-70
2021/12/20 07:33:41;;;;;;;29.10;14.47;;;;;;;;;;4943004;29;20590;-71
2021/12/20 07:36:45;;;;;;;25.10;14.40;;;;;;;;;;4942901;29;20555;-71
2021/12/20 07:39:49;;;;;;;24.83;13.23;;;;;;;;;;4948366;29;20603;-71
2021/12/20 07:42:53;;;;;;;30.17;16.17;;;;;;;;;;4954845;29;20668;-71
2021/12/20 07:45:57;;;;;;;27.20;15.30;;;;;;;;;;4954784;29;20642;-71
2021/12/20 07:49:02;;;;;;;33.37;16.53;;;;;;;;;;4955014;29;20557;-71
2021/12/20 07:52:06;;;;;;;32.00;14.03;;;;;;;;;;4942357;29;20658;-71
2021/12/20 07:55:10;;;;;;;27.93;16.40;;;;;;;;;;4955171;29;20187;-71
2021/12/20 07:58:14;;;;;;;23.83;15.00;;;;;;;;;;4942607;29;20221;-71
2021/12/20 08:01:18;;;;;;;24.03;14.50;;;;;;;;;;4946707;29;20235;-71
2021/12/20 08:04:22;;;;;;;25.40;13.53;;;;;;;;;;4924116;29;20221;-71
2021/12/20 08:07:26;;;;;;;23.63;13.90;;;;;;;;;;4924243;29;20192;-71
2021/12/20 08:10:31;;;;;;;25.40;13.40;;;;;;;;;;4955770;28;20195;-72
2021/12/20 08:13:44;;;;;;;24.23;14.37;;;;;;;;;;4961122;29;20562;-71
2021/12/20 08:16:48;;;;;;;22.77;13.57;;;;;;;;;;4930508;29;20183;-71
2021/12/20 08:19:52;;;;;;;24.33;13.67;;;;;;;;;;4958505;28;20199;-71
2021/12/20 08:22:56;;;;;;;25.17;13.10;;;;;;;;;;4960725;29;20225;-71
2021/12/20 08:26:00;;;;;;;25.43;14.43;;;;;;;;;;4961229;29;20231;-71
2021/12/20 08:29:04;;;;;;;22.17;12.77;;;;;;;;;;4948972;29;20220;-71
2021/12/20 08:32:08;;;;;;;22.53;13.03;;;;;;;;;;4961485;29;20219;-71
2021/12/20 08:35:13;;;;;;;23.50;13.80;;;;;;;;;;4960460;28;20191;-72
2021/12/20 08:38:19;;;;;;;29.23;16.47;;;;;;;;;;4949162;29;20195;-71
2021/12/20 08:41:23;;;;;;;26.17;14.03;;;;;;;;;;4960622;28;20233;-71
2021/12/20 08:44:27;;;;;;;22.90;13.40;;;;;;;;;;4949676;28;20221;-71
2021/12/20 08:47:32;;;;;;;25.17;13.50;;;;;;;;;;4952311;29;20221;-71
2021/12/20 08:50:37;;;;;;;24.00;14.13;;;;;;;;;;4937693;28;20203;-71
2021/12/20 08:53:41;;;;;;;24.73;13.53;;;;;;;;;;4953173;29;20194;-71
2021/12/20 08:56:46;;;;;;;26.57;16.40;;;;;;;;;;4960647;29;20206;-73
2021/12/20 08:59:50;;;;;;;24.37;15.17;;;;;;;;;;4960377;29;20210;-73
2021/12/20 09:02:55;;;;;;;24.27;13.20;;;;;;;;;;4960219;28;20226;-72
2021/12/20 09:05:59;;;;;;;25.63;13.87;;;;;;;;;;4937911;29;20207;-72
2021/12/20 09:09:04;;;;;;;23.53;12.93;;;;;;;;;;4948636;28;20213;-72
2021/12/20 09:12:08;;;;;;;24.30;13.73;;;;;;;;;;4960389;29;20627;-72
2021/12/20 09:15:16;;;;;;;27.00;12.80;;;;;;;;;;4941841;29;20200;-72
2021/12/20 09:18:20;;;;;;;22.50;11.97;;;;;;;;;;4960207;29;20201;-72
2021/12/20 09:21:24;;;;;;;24.10;12.30;;;;;;;;;;4959808;28;20243;-72
2021/12/20 09:24:28;;;;;;;22.93;12.70;;;;;;;;;;4956979;29;20195;-72
2021/12/20 09:27:33;;;;;;;22.10;12.47;;;;;;;;;;4955566;29;20211;-72
2021/12/20 09:30:39;;;;;;;18.27;11.13;;;;;;;;;;4945593;29;20187;-72
2021/12/20 09:33:43;;;;;;;23.03;12.53;;;;;;;;;;4957035;29;20210;-72
2021/12/20 09:36:47;;;;;;;22.47;12.13;;;;;;;;;;4957896;29;20192;-72
2021/12/20 09:39:54;;;;;;;21.17;11.27;;;;;;;;;;4945741;29;20691;-72
2021/12/20 09:43:02;;;;;;;18.30;9.13;;;;;;;;;;4940189;29;20223;-72
2021/12/20 09:46:07;;;;;;;19.27;10.33;;;;;;;;;;4957409;29;20215;-71
2021/12/20 09:49:11;;;;;;;17.47;10.23;;;;;;;;;;4938235;29;20192;-70
2021/12/20 09:52:17;;;;;;;15.10;8.37;;;;;;;;;;4948814;29;20226;-71
2021/12/20 09:55:21;;;;;;;12.90;8.27;;;;;;;;;;4938132;29;20642;-71
2021/12/20 09:58:27;;;;;;;14.07;7.60;;;;;;;;;;4937855;29;20188;-71
2021/12/20 10:01:31;;;;;;;15.87;8.63;;;;;;;;;;4926011;29;20228;-71
2021/12/20 10:04:36;;;;;;;15.03;8.40;;;;;;;;;;4940922;29;20196;-71
2021/12/20 10:07:41;;;;;;;15.10;7.57;;;;;;;;;;4957064;29;20195;-70
2021/12/20 10:10:48;;;;;;;14.03;7.20;;;;;;;;;;4956645;29;20557;-71
2021/12/20 10:14:14;;;;;;;14.33;7.60;;;;;;;;;;4934744;29;20195;-71
2021/12/20 10:17:18;;;;;;;13.30;6.60;;;;;;;;;;4937752;29;20180;-71
2021/12/20 10:20:31;;;;;;;13.17;5.60;;;;;;;;;;4947140;29;20562;-71
2021/12/20 10:23:41;;;;;;;11.80;6.40;;;;;;;;;;4953910;29;20204;-71
2021/12/20 10:26:48;;;;;;;10.67;6.30;;;;;;;;;;4950526;29;20224;-70
2021/12/20 10:29:52;;;;;;;11.20;5.33;;;;;;;;;;4956245;29;20192;-71
2021/12/20 10:32:57;;;;;;;9.33;4.97;;;;;;;;;;4955391;28;20223;-71
2021/12/20 10:36:13;;;;;;;10.57;4.80;;;;;;;;;;4939192;29;20180;-69
2021/12/20 10:39:17;;;;;;;12.60;4.63;;;;;;;;;;4936083;29;20256;-70
2021/12/20 10:42:29;;;;;;;9.00;5.73;;;;;;;;;;4941506;29;20227;-71
2021/12/20 10:45:33;;;;;;;11.57;5.37;;;;;;;;;;4956028;29;20211;-70
2021/12/20 10:48:37;;;;;;;10.27;4.90;;;;;;;;;;4937795;29;20208;-70
2021/12/20 10:51:48;;;;;;;9.43;3.97;;;;;;;;;;4948821;29;20581;-70
2021/12/20 10:54:53;;;;;;;8.40;4.20;;;;;;;;;;4937043;29;20188;-70
2021/12/20 10:58:34;;;;;;;8.10;3.93;;;;;;;;;;4954707;29;20203;-70
2021/12/20 11:05:22;;;;;;;8.87;3.97;;;;;;;;;;4953597;29;20227;-73
2021/12/20 11:11:52;;;;;;;7.47;4.60;;;;;;;;;;4943282;29;20234;-73
2021/12/20 11:15:09;;;;;;;6.93;4.17;;;;;;;;;;4956062;29;20207;-73
2021/12/20 11:18:14;;;;;;;9.23;4.53;;;;;;;;;;4948319;29;20302;-73
2021/12/20 11:21:20;;;;;;;9.80;4.97;;;;;;;;;;4943049;29;20234;-72
2021/12/20 11:24:30;;;;;;;9.17;4.30;;;;;;;;;;4942020;29;20546;-72
2021/12/20 11:27:53;;;;;;;10.93;5.20;;;;;;;;;;4943121;29;20199;-74
2021/12/20 11:30:57;;;;;;;9.87;4.77;;;;;;;;;;4941959;29;20196;-74
2021/12/20 11:34:02;;;;;;;5.90;2.33;;;;;;;;;;4942341;29;20183;-74
2021/12/20 11:37:06;;;;;;;8.03;2.40;;;;;;;;;;4936399;29;20199;-73
2021/12/20 11:40:12;;;;;;;7.23;2.73;;;;;;;;;;4932784;29;20195;-73
2021/12/20 11:43:16;;;;;;;5.97;2.37;;;;;;;;;;4943123;29;20676;-74
2021/12/20 11:46:24;;;;;;;9.13;3.00;;;;;;;;;;4930129;29;20223;-73
2021/12/20 11:49:29;;;;;;;6.17;3.20;;;;;;;;;;4954797;29;20645;-74
2021/12/20 11:52:42;;;;;;;9.37;3.33;;;;;;;;;;4954648;29;20223;-74
2021/12/20 11:55:51;;;;;;;9.57;5.23;;;;;;;;;;4924217;29;20192;-73
2021/12/20 11:58:55;;;;;;;7.97;4.23;;;;;;;;;;4950587;29;20195;-73
2021/12/20 12:02:26;;;;;;;9.37;3.47;;;;;;;;;;4955107;29;20223;-74
2021/12/20 12:05:38;;;;;;;7.17;2.87;;;;;;;;;;4921060;29;20211;-73
2021/12/20 12:08:59;;;;;;;8.67;2.80;;;;;;;;;;4954343;29;20203;-73
2021/12/20 12:12:30;;;;;;;7.37;2.97;;;;;;;;;;4943462;29;20230;-74
2021/12/20 12:15:51;;;;;;;9.17;2.40;;;;;;;;;;4954651;29;20195;-73
2021/12/20 12:18:58;;;;;;;4.60;1.93;;;;;;;;;;4938237;29;20195;-73
2021/12/20 12:22:03;;;;;;;6.47;2.57;;;;;;;;;;4954586;29;20700;-73
2021/12/20 12:25:10;;;;;;;4.57;2.00;;;;;;;;;;4954775;29;20199;-74
2021/12/20 12:28:15;;;;;;;4.40;2.17;;;;;;;;;;4954040;29;20192;-73
2021/12/20 12:31:20;;;;;;;4.67;1.83;;;;;;;;;;4934913;29;20928;-74
2021/12/20 12:34:37;;;;;;;4.73;1.83;;;;;;;;;;4948089;29;20191;-73
2021/12/20 12:37:42;;;;;;;4.57;1.90;;;;;;;;;;4949099;29;20187;-76
2021/12/20 12:41:08;;;;;;;4.90;2.27;;;;;;;;;;4937025;29;20200;-75
2021/12/20 12:44:15;;;;;;;9.97;7.17;;;;;;;;;;4921107;29;20188;-77
2021/12/20 12:47:36;;;;;;;6.07;2.30;;;;;;;;;;4932041;29;20547;-76
2021/12/20 12:50:40;;;;;;;8.10;2.63;;;;;;;;;;4931887;29;20196;-76
2021/12/20 12:53:51;;;;;;;8.23;2.07;;;;;;;;;;4954491;29;20668;-76
2021/12/20 12:57:15;;;;;;;8.33;1.83;;;;;;;;;;4944459;29;20188;-76
2021/12/20 13:00:28;;;;;;;6.50;2.07;;;;;;;;;;4958140;29;20188;-76
2021/12/20 13:03:32;;;;;;;5.87;2.10;;;;;;;;;;4956927;29;20215;-76
2021/12/20 13:06:37;;;;;;;8.23;2.03;;;;;;;;;;4948268;29;20232;-76
2021/12/20 13:09:44;;;;;;;6.20;2.10;;;;;;;;;;4937486;29;20207;-76
2021/12/20 13:12:53;;;;;;;4.80;2.07;;;;;;;;;;4959589;29;20227;-76
2021/12/20 13:16:02;;;;;;;5.90;2.10;;;;;;;;;;4928901;29;20185;-76
2021/12/20 13:19:06;;;;;;;3.70;2.00;;;;;;;;;;4940692;29;20192;-76
2021/12/20 13:22:10;;;;;;;4.80;1.93;;;;;;;;;;4928869;29;20223;-76
2021/12/20 13:25:14;;;;;;;6.13;2.20;;;;;;;;;;4929170;29;20341;-76
2021/12/20 13:28:18;;;;;;;4.50;1.97;;;;;;;;;;4939770;29;20641;-75
2021/12/20 13:31:25;;;;;;;7.93;2.00;;;;;;;;;;4938803;29;20224;-76
2021/12/20 13:34:30;;;;;;;4.87;2.00;;;;;;;;;;4926888;29;20189;-76
2021/12/20 13:37:39;;;;;;;4.07;1.67;;;;;;;;;;4937837;29;20192;-75
2021/12/20 13:40:49;;;;;;;5.23;2.00;;;;;;;;;;4926819;29;20192;-76
2021/12/20 13:44:00;;;;;;;5.60;1.60;;;;;;;;;;4926675;29;20193;-76
2021/12/20 13:47:15;;;;;;;7.47;1.63;;;;;;;;;;4926880;29;20220;-76
2021/12/20 13:50:19;;;;;;;4.17;1.60;;;;;;;;;;4926470;29;20192;-76
2021/12/20 13:53:33;;;;;;;3.93;1.83;;;;;;;;;;4937267;29;20527;-76
2021/12/20 13:56:37;;;;;;;3.50;1.50;;;;;;;;;;4937700;29;20185;-76
2021/12/20 13:59:56;;;;;;;4.47;1.50;;;;;;;;;;4926453;29;20315;-76
2021/12/20 14:03:00;;;;;;;4.17;2.00;;;;;;;;;;4936949;29;20224;-76
2021/12/20 14:06:04;;;;;;;7.23;2.20;;;;;;;;;;4937728;29;20224;-76
2021/12/20 14:09:21;;;;;;;4.13;2.00;;;;;;;;;;4936349;29;20184;-75
2021/12/20 14:12:33;;;;;;;5.33;1.70;;;;;;;;;;4936668;29;20240;-76
2021/12/20 14:15:39;;;;;;;4.20;1.70;;;;;;;;;;4937015;29;20188;-75
2021/12/20 14:18:46;;;;;;;4.03;1.60;;;;;;;;;;4926192;29;20630;-75
2021/12/20 14:21:59;;;;;;;3.53;1.90;;;;;;;;;;4925758;29;20575;-76
2021/12/20 14:25:07;;;;;;;3.30;1.87;;;;;;;;;;4937191;29;20184;-76
2021/12/20 14:28:14;;;;;;;6.43;2.17;;;;;;;;;;4925715;29;20185;-76
2021/12/20 14:31:27;;;;;;;7.40;2.00;;;;;;;;;;4925782;29;20219;-75
2021/12/20 14:34:34;;;;;;;4.27;1.70;;;;;;;;;;4925471;29;20201;-76
2021/12/20 14:37:38;;;;;;;3.53;1.80;;;;;;;;;;4925960;29;20185;-76
2021/12/20 14:40:48;;;;;;;3.43;1.60;;;;;;;;;;4925677;29;20188;-75
2021/12/20 14:43:54;;;;;;;2.10;1.30;;;;;;;;;;4937150;29;20188;-76
2021/12/20 14:47:06;;;;;;;4.43;1.67;;;;;;;;;;4936943;29;20213;-75
2021/12/20 14:50:26;;;;;;;3.70;1.67;;;;;;;;;;4936315;29;20522;-76
2021/12/20 14:53:30;;;;;;;5.73;1.60;;;;;;;;;;4937418;29;20189;-76
2021/12/20 14:56:34;;;;;;;3.87;1.60;;;;;;;;;;4914577;29;20184;-76
2021/12/20 14:59:38;;;;;;;3.13;1.73;;;;;;;;;;4925019;29;20677;-76
2021/12/20 15:02:45;;;;;;;5.67;1.80;;;;;;;;;;4936897;29;20219;-75
2021/12/20 15:06:03;;;;;;;5.73;1.80;;;;;;;;;;4933623;29;20188;-70
2021/12/20 15:09:09;;;;;;;3.87;2.13;;;;;;;;;;4935813;29;20196;-70
2021/12/20 15:12:14;;;;;;;7.20;3.50;;;;;;;;;;4939884;29;20986;-71
2021/12/20 15:15:18;;;;;;;11.10;5.57;;;;;;;;;;4951566;29;20567;-71
2021/12/20 15:18:22;;;;;;;8.87;4.80;;;;;;;;;;4952097;29;20595;-71
2021/12/20 15:21:28;;;;;;;6.70;3.07;;;;;;;;;;4948681;29;20662;-72
2021/12/20 15:24:33;;;;;;;4.77;1.90;;;;;;;;;;4939913;29;20575;-71
2021/12/20 15:27:37;;;;;;;8.57;2.27;;;;;;;;;;4939518;29;21191;-72
2021/12/20 15:30:42;;;;;;;3.43;1.70;;;;;;;;;;4928924;29;20595;-71
2021/12/20 15:33:46;;;;;;;4.27;1.50;;;;;;;;;;4938860;29;20599;-71
2021/12/20 15:36:51;;;;;;;5.83;1.97;;;;;;;;;;4951218;29;20579;-70
2021/12/20 15:39:55;;;;;;;4.20;1.80;;;;;;;;;;4939762;29;20658;-70
2021/12/20 15:43:01;;;;;;;3.07;1.63;;;;;;;;;;4951984;29;20665;-71
2021/12/20 15:46:05;;;;;;;4.97;1.77;;;;;;;;;;4933310;29;20623;-70
2021/12/20 15:49:11;;;;;;;4.03;1.73;;;;;;;;;;4941495;29;20984;-71
2021/12/20 15:52:14;;;;;;;2.87;1.60;;;;;;;;;;4935951;29;20654;-71
2021/12/20 15:55:20;;;;;;;4.37;1.50;;;;;;;;;;4951682;29;20614;-71
2021/12/20 15:58:24;;;;;;;4.63;1.90;;;;;;;;;;4951196;29;20635;-71
2021/12/20 16:01:30;;;;;;;5.20;1.70;;;;;;;;;;4951385;29;20662;-71
2021/12/20 16:04:33;;;;;;;3.37;1.63;;;;;;;;;;4951649;29;20588;-71
2021/12/20 16:07:38;;;;;;;3.83;1.67;;;;;;;;;;4951714;29;20614;-71
2021/12/20 16:10:42;;;;;;;5.37;1.60;;;;;;;;;;4939707;29;20634;-71
2021/12/20 16:13:46;;;;;;;8.87;4.67;;;;;;;;;;4944083;29;20961;-72
2021/12/20 16:16:52;;;;;;;16.87;3.70;;;;;;;;;;4951591;29;21139;-71
2021/12/20 16:19:56;;;;;;;3.60;1.90;;;;;;;;;;4951377;29;20599;-71
2021/12/20 16:23:00;;;;;;;3.03;1.80;;;;;;;;;;4937206;29;20655;-71
2021/12/20 16:26:05;;;;;;;5.67;1.77;;;;;;;;;;4932430;29;21105;-71
2021/12/20 16:29:09;;;;;;;2.53;1.40;;;;;;;;;;4909630;29;20548;-71
2021/12/20 16:32:13;;;;;;;2.40;1.33;;;;;;;;;;4938683;29;20662;-71
2021/12/20 16:35:21;;;;;;;4.47;1.60;;;;;;;;;;4942937;29;20627;-71
2021/12/20 16:38:26;;;;;;;2.60;1.50;;;;;;;;;;4955231;29;20563;-71
2021/12/20 16:41:30;;;;;;;5.03;1.67;;;;;;;;;;4955159;29;20626;-71
2021/12/20 16:44:38;;;;;;;3.50;1.43;;;;;;;;;;4954890;29;20952;-71
2021/12/20 16:47:50;;;;;;;5.10;1.60;;;;;;;;;;4935393;29;20608;-71
2021/12/20 16:50:58;;;;;;;6.33;2.20;;;;;;;;;;4939640;29;21198;-71
2021/12/20 16:54:06;;;;;;;3.57;1.70;;;;;;;;;;4935764;29;21101;-71
2021/12/20 16:57:10;;;;;;;2.87;1.47;;;;;;;;;;4953599;29;20657;-71
2021/12/20 17:00:15;;;;;;;3.47;1.63;;;;;;;;;;4953995;29;20595;-71
2021/12/20 17:06:28;;;;;;;5.87;1.90;;;;;;;;;;4954461;29;20599;-71
2021/12/20 17:09:32;;;;;;;3.70;1.43;;;;;;;;;;4935417;29;20561;-71
2021/12/20 17:12:37;;;;;;;4.70;1.70;;;;;;;;;;4943800;29;20662;-71
2021/12/20 17:15:42;;;;;;;4.60;1.63;;;;;;;;;;4954448;29;20583;-71
2021/12/20 17:18:46;;;;;;;2.93;1.80;;;;;;;;;;4953923;29;20571;-71
2021/12/20 17:21:50;;;;;;;4.00;1.63;;;;;;;;;;4954283;29;21000;-71
2021/12/20 17:24:54;;;;;;;5.07;1.70;;;;;;;;;;4954182;29;20587;-70
2021/12/20 17:28:00;;;;;;;4.57;1.37;;;;;;;;;;4954391;29;20619;-71
2021/12/20 17:31:04;;;;;;;3.70;1.70;;;;;;;;;;4941507;29;20985;-71
2021/12/20 17:34:08;;;;;;;4.03;1.60;;;;;;;;;;4936152;29;20591;-71
2021/12/20 17:37:12;;;;;;;4.93;1.73;;;;;;;;;;4951922;29;20595;-71
2021/12/20 17:40:18;;;;;;;6.50;2.20;;;;;;;;;;4942167;29;20942;-71
2021/12/20 17:43:22;;;;;;;4.23;1.60;;;;;;;;;;4952468;28;20575;-72
2021/12/20 17:46:27;;;;;;;2.97;1.40;;;;;;;;;;4953643;29;20930;-72
2021/12/20 17:49:31;;;;;;;4.37;2.03;;;;;;;;;;4953937;29;20559;-72
2021/12/20 17:52:35;;;;;;;6.10;2.10;;;;;;;;;;4953707;29;20649;-72
2021/12/20 17:55:40;;;;;;;4.67;1.70;;;;;;;;;;4930735;29;20985;-72
2021/12/20 17:58:43;;;;;;;3.03;1.60;;;;;;;;;;4922701;29;20568;-72
2021/12/20 18:01:48;;;;;;;4.57;1.87;;;;;;;;;;4940009;29;21254;-72
2021/12/20 18:04:57;;;;;;;2.33;1.70;;;;;;;;;;4941415;29;20595;-71
2021/12/20 18:08:01;;;;;;;3.47;1.97;;;;;;;;;;4933708;29;20611;-72
2021/12/20 18:11:05;;;;;;;2.83;1.73;;;;;;;;;;4938370;29;20638;-71
2021/12/20 18:14:09;;;;;;;5.53;2.30;;;;;;;;;;4943635;29;20598;-71
2021/12/20 18:17:14;;;;;;;6.10;2.00;;;;;;;;;;4952574;29;21112;-72
2021/12/20 18:20:23;;;;;;;4.27;1.70;;;;;;;;;;4953483;29;20575;-71
2021/12/20 18:23:27;;;;;;;7.23;1.70;;;;;;;;;;4921937;29;20568;-71
2021/12/20 18:26:31;;;;;;;3.30;1.83;;;;;;;;;;4944429;29;20603;-72
2021/12/20 18:29:35;;;;;;;4.60;1.77;;;;;;;;;;4941474;29;21262;-70
2021/12/20 18:32:40;;;;;;;4.30;1.97;;;;;;;;;;4951930;29;20650;-70
2021/12/20 18:35:44;;;;;;;7.80;2.20;;;;;;;;;;4940725;29;20607;-71
2021/12/20 18:38:49;;;;;;;3.27;1.77;;;;;;;;;;4952615;29;20591;-71